createdAt,value
2023-02-15T00:04:22.357Z,98727.38
2023-02-15T00:09:25.555Z,98732.69
2023-02-15T00:14:28.665Z,98722.25
2023-02-15T00:19:33.241Z,98716.19
2023-02-15T00:24:36.445Z,98713.56
2023-02-15T00:29:39.666Z,98706.00
2023-02-15T00:34:44.361Z,98707.72
2023-02-15T00:39:48.699Z,98698.19
2023-02-15T00:44:51.880Z,98701.69
2023-02-15T00:49:56.394Z,98694.81
2023-02-15T00:54:59.446Z,98691.44
2023-02-15T01:00:02.705Z,98686.25
2023-02-15T01:05:08.463Z,98684.59
2023-02-15T01:10:11.891Z,98676.88
2023-02-15T01:15:15.062Z,98673.47
2023-02-15T01:20:19.887Z,98665.69
2023-02-15T01:25:25.221Z,98664.91
2023-02-15T01:30:29.387Z,98672.66
2023-02-15T01:35:34.362Z,98672.72
2023-02-15T01:40:37.619Z,98679.66
2023-02-15T01:45:44.286Z,98667.50
2023-02-15T01:50:53.020Z,98670.34
2023-02-15T01:56:01.665Z,98668.53
2023-02-15T02:01:09.622Z,98662.44
2023-02-15T02:06:14.527Z,98663.38
2023-02-15T02:11:18.100Z,98665.09
2023-02-15T02:16:30.613Z,98659.06
2023-02-15T02:22:09.425Z,98654.88
2023-02-15T02:27:26.271Z,98661.75
2023-02-15T02:32:54.866Z,98651.41
2023-02-15T02:38:06.055Z,98664.38
2023-02-15T02:43:17.741Z,98660.91
2023-02-15T02:48:26.466Z,98660.16
2023-02-15T02:53:32.634Z,98659.31
2023-02-15T02:58:41.962Z,98656.72
2023-02-15T03:03:51.628Z,98650.78
2023-02-15T03:09:05.791Z,98642.88
2023-02-15T03:14:09.156Z,98636.84
2023-02-15T03:19:17.606Z,98636.91
2023-02-15T03:24:27.312Z,98635.22
2023-02-15T03:29:32.777Z,98627.47
2023-02-15T03:34:37.822Z,98624.97
2023-02-15T03:39:47.946Z,98622.34
2023-02-15T03:44:56.401Z,98610.34
2023-02-15T03:50:04.839Z,98605.19
2023-02-15T03:55:08.680Z,98603.44
2023-02-15T04:00:34.168Z,98606.91
2023-02-15T04:05:38.957Z,98596.63
2023-02-15T04:10:54.659Z,98583.59
2023-02-15T04:16:07.931Z,98583.63
2023-02-15T04:21:32.712Z,98586.25
2023-02-15T04:26:36.033Z,98585.34
2023-02-15T04:31:39.289Z,98575.94
2023-02-15T04:36:44.583Z,98577.69
2023-02-15T04:41:48.901Z,98575.03
2023-02-15T04:46:52.196Z,98569.91
2023-02-15T04:51:56.883Z,98567.34
2023-02-15T04:57:00.289Z,98570.78
2023-02-15T05:02:04.073Z,98557.91
2023-02-15T05:07:09.312Z,98556.19
2023-02-15T05:12:12.787Z,98548.44
2023-02-15T05:17:16.190Z,98558.91
2023-02-15T05:22:21.392Z,98552.81
2023-02-15T05:27:41.710Z,98558.03
2023-02-15T05:32:44.959Z,98555.50
2023-02-15T05:37:49.563Z,98547.69
2023-02-15T05:42:52.879Z,98539.91
2023-02-15T05:47:56.148Z,98537.34
2023-02-15T05:53:00.690Z,98549.41
2023-02-15T05:58:03.966Z,98552.03
2023-02-15T06:03:07.285Z,98556.38
2023-02-15T06:08:12.142Z,98547.78
2023-02-15T06:13:15.515Z,98549.47
2023-02-15T06:18:18.810Z,98548.63
2023-02-15T06:23:23.384Z,98555.50
2023-02-15T06:28:27.298Z,98552.13
2023-02-15T06:33:31.492Z,98552.13
2023-02-15T06:38:36.191Z,98551.19
2023-02-15T06:43:40.965Z,98548.59
2023-02-15T06:48:44.368Z,98549.41
2023-02-15T06:53:49.064Z,98546.78
2023-02-15T06:58:53.665Z,98539.88
2023-02-15T07:03:56.928Z,98525.19
2023-02-15T07:09:01.580Z,98522.56
2023-02-15T07:14:04.870Z,98517.38
2023-02-15T07:19:08.230Z,98533.91
2023-02-15T07:24:12.688Z,98520.78
2023-02-15T07:29:16.455Z,98524.16
2023-02-15T07:34:19.774Z,98519.72
2023-02-15T07:39:24.286Z,98512.84
2023-02-15T07:44:27.532Z,98510.81
2023-02-15T07:49:30.988Z,98506.44
2023-02-15T07:54:35.645Z,98494.81
2023-02-15T07:59:38.758Z,98497.00
2023-02-15T08:04:42.187Z,98500.06
2023-02-15T08:09:47.049Z,98493.13
2023-02-15T08:14:50.181Z,98485.53
2023-02-15T08:19:53.485Z,98500.03
2023-02-15T08:24:58.078Z,98488.41
2023-02-15T08:30:01.321Z,98483.28
2023-02-15T08:35:04.716Z,98470.41
2023-02-15T08:40:10.746Z,98471.88
2023-02-15T08:45:13.985Z,98468.06
2023-02-15T08:50:17.555Z,98468.56
2023-02-15T08:55:22.206Z,98468.34
2023-02-15T09:00:26.148Z,98465.84
2023-02-15T09:05:29.388Z,98464.84
2023-02-15T09:10:34.113Z,98454.88
2023-02-15T09:15:37.743Z,98455.81
2023-02-15T09:20:40.855Z,98461.56
2023-02-15T09:25:45.498Z,98463.00
2023-02-15T09:30:48.948Z,98450.41
2023-02-15T09:35:52.272Z,98457.38
2023-02-15T09:41:11.526Z,98457.75
2023-02-15T09:46:43.282Z,98462.34
2023-02-15T09:52:13.954Z,98457.84
2023-02-15T09:57:29.972Z,98441.25
2023-02-15T10:02:51.059Z,98451.56
2023-02-15T10:08:31.543Z,98443.97
2023-02-15T10:13:45.334Z,98436.22
2023-02-15T10:19:01.450Z,98438.34
2023-02-15T10:24:25.953Z,98436.44
2023-02-15T10:29:37.787Z,98426.34
2023-02-15T10:34:45.566Z,98423.50
2023-02-15T10:40:00.965Z,98407.94
2023-02-15T10:45:21.708Z,98405.41
2023-02-15T10:50:31.961Z,98392.50
2023-02-15T10:55:48.362Z,98381.53
2023-02-15T11:01:02.440Z,98371.84
2023-02-15T11:06:11.340Z,98372.88
2023-02-15T11:11:21.997Z,98362.69
2023-02-15T11:16:31.766Z,98366.50
2023-02-15T11:21:40.232Z,98352.81
2023-02-15T11:26:46.583Z,98350.03
2023-02-15T11:31:56.063Z,98345.78
2023-02-15T11:37:06.024Z,98334.66
2023-02-15T11:42:15.449Z,98337.06
2023-02-15T11:47:38.372Z,98339.84
2023-02-15T11:52:41.633Z,98326.78
2023-02-15T11:57:50.528Z,98329.22
2023-02-15T12:02:57.018Z,98315.63
2023-02-15T12:08:06.638Z,98308.84
2023-02-15T12:13:14.941Z,98306.41
2023-02-15T12:18:38.640Z,98302.41
2023-02-15T12:23:50.296Z,98305.25
2023-02-15T12:28:55.501Z,98299.09
2023-02-15T12:34:03.699Z,98290.59
2023-02-15T12:39:21.694Z,98292.78
2023-02-15T12:44:27.632Z,98270.41
2023-02-15T12:49:33.875Z,98262.19
2023-02-15T12:54:41.849Z,98260.53
2023-02-15T12:59:53.320Z,98256.78
2023-02-15T13:04:59.959Z,98256.91
2023-02-15T13:10:03.336Z,98257.72
2023-02-15T13:15:28.144Z,98267.34
2023-02-15T13:20:41.610Z,98275.63
2023-02-15T13:25:51.355Z,98266.91
2023-02-15T13:30:55.699Z,98265.69
2023-02-15T13:36:09.792Z,98265.00
2023-02-15T13:41:17.072Z,98274.19
2023-02-15T13:46:34.074Z,98273.47
2023-02-15T13:51:45.371Z,98276.59
2023-02-15T13:57:02.308Z,98264.75
2023-02-15T14:02:30.365Z,98264.53
2023-02-15T14:07:56.377Z,98257.50
2023-02-15T14:13:44.928Z,98247.94
2023-02-15T14:18:53.389Z,98239.25
2023-02-15T14:24:11.570Z,98226.44
2023-02-15T14:29:24.687Z,98232.28
2023-02-15T14:34:38.778Z,98229.47
2023-02-15T14:40:08.260Z,98231.03
2023-02-15T14:45:21.375Z,98231.88
2023-02-15T14:50:45.729Z,98225.22
2023-02-15T14:56:27.046Z,98236.81
2023-02-15T15:01:32.612Z,98236.31
2023-02-15T15:06:38.516Z,98243.28
2023-02-15T15:11:51.218Z,98253.59
2023-02-15T15:21:59.146Z,98252.91
2023-02-15T15:27:48.753Z,98243.88
2023-02-15T15:33:00.383Z,98241.94
2023-02-15T15:38:26.144Z,98231.78
2023-02-15T15:44:07.134Z,98247.75
2023-02-15T15:49:13.946Z,98240.00
2023-02-15T15:54:19.812Z,98235.78
2023-02-15T15:59:27.350Z,98247.16
2023-02-15T16:04:32.333Z,98245.50
2023-02-15T16:09:35.806Z,98248.75
2023-02-15T16:14:43.965Z,98248.88
2023-02-15T16:19:47.797Z,98245.50
2023-02-15T16:25:14.001Z,98240.78
2023-02-15T16:30:31.124Z,98250.72
2023-02-15T16:35:35.707Z,98258.09
2023-02-15T16:40:49.236Z,98256.78
2023-02-15T16:46:00.526Z,98252.09
2023-02-15T16:51:04.292Z,98265.66
2023-02-15T16:56:08.109Z,98265.28
2023-02-15T17:01:15.515Z,98264.59
2023-02-15T17:06:26.767Z,98263.78
2023-02-15T17:11:37.282Z,98273.09
2023-02-15T17:16:45.540Z,98283.38
2023-02-15T17:21:53.395Z,98268.34
2023-02-15T17:27:00.953Z,98283.28
2023-02-15T17:32:07.329Z,98278.03
2023-02-15T17:37:14.022Z,98281.34
2023-02-15T17:42:17.218Z,98272.78
2023-02-15T17:47:25.576Z,98276.31
2023-02-15T17:52:31.519Z,98281.00
2023-02-15T17:57:34.932Z,98275.53
2023-02-15T18:02:57.140Z,98269.91
2023-02-15T18:08:18.061Z,98270.53
2023-02-15T18:13:21.384Z,98267.41
2023-02-15T18:18:26.368Z,98264.16
2023-02-15T18:23:29.617Z,98255.50
2023-02-15T18:28:32.909Z,98262.97
2023-02-15T18:33:40.725Z,98265.56
2023-02-15T18:38:44.177Z,98268.31
2023-02-15T18:43:48.934Z,98276.94
2023-02-15T18:48:53.752Z,98268.66
2023-02-15T18:54:03.418Z,98269.81
2023-02-15T18:59:06.858Z,98261.63
2023-02-15T19:04:12.000Z,98256.59
2023-02-15T19:09:19.744Z,98257.25
2023-02-15T19:14:28.684Z,98256.00
2023-02-15T19:19:33.787Z,98244.03
2023-02-15T19:24:40.636Z,98248.38
2023-02-15T19:29:44.140Z,98238.63
2023-02-15T19:34:49.292Z,98239.31
2023-02-15T19:39:53.862Z,98238.03
2023-02-15T19:44:57.163Z,98241.50
2023-02-15T19:50:04.196Z,98235.69
2023-02-15T19:55:08.265Z,98238.25
2023-02-15T20:00:22.199Z,98239.34
2023-02-15T20:05:28.936Z,98241.38
2023-02-15T20:10:33.442Z,98244.81
2023-02-15T20:15:37.584Z,98246.75
2023-02-15T20:20:45.051Z,98247.06
2023-02-15T20:25:48.521Z,98246.19
2023-02-15T20:30:52.585Z,98238.69
2023-02-15T20:35:57.215Z,98238.53
2023-02-15T20:41:19.224Z,98236.09
2023-02-15T20:46:22.547Z,98241.66
2023-02-15T20:51:27.490Z,98232.25
2023-02-15T20:56:32.848Z,98237.75
2023-02-15T21:01:37.064Z,98234.22
2023-02-15T21:06:41.776Z,98238.72
2023-02-15T21:11:46.371Z,98247.44
2023-02-15T21:16:50.723Z,98244.91
2023-02-15T21:21:55.614Z,98249.63
2023-02-15T21:27:03.404Z,98246.91
2023-02-15T21:32:07.285Z,98245.22
2023-02-15T21:37:28.236Z,98243.38
2023-02-15T21:42:49.066Z,98244.84
2023-02-15T21:47:52.384Z,98242.88
2023-02-15T21:52:57.695Z,98237.69
2023-02-15T21:58:01.435Z,98233.09
2023-02-15T22:03:06.706Z,98235.69
2023-02-15T22:08:13.624Z,98238.81
2023-02-15T22:13:19.212Z,98239.13
2023-02-15T22:18:24.513Z,98245.53
2023-02-15T22:23:29.247Z,98227.97
2023-02-15T22:28:34.897Z,98214.91
2023-02-15T22:33:38.126Z,98212.31
2023-02-15T22:38:42.832Z,98212.94
2023-02-15T22:43:47.422Z,98215.63
2023-02-15T22:48:51.625Z,98215.66
2023-02-15T22:53:56.368Z,98218.69
2023-02-15T22:59:03.623Z,98215.31
2023-02-15T23:04:07.298Z,98202.31
2023-02-15T23:09:11.997Z,98212.44
2023-02-15T23:14:26.026Z,98210.81
2023-02-15T23:19:29.406Z,98218.69
2023-02-15T23:24:34.562Z,98216.47
2023-02-15T23:29:37.729Z,98215.69
2023-02-15T23:34:40.926Z,98223.47
2023-02-15T23:40:02.966Z,98217.44
2023-02-15T23:45:19.386Z,98206.91
2023-02-15T23:50:24.902Z,98202.03
2023-02-15T23:55:36.520Z,98200.06
